Time;durP1;ratioP1;P1;durP2;ratioP2;P2;SDS_P1;SDS_P2;PMS_P1;PMS_P2;Temp;Humidity;BMP_temperature;BMP_pressure;BME280_temperature;BME280_humidity;BME280_pressure;Samples;Min_cycle;Max_cycle;Signal;HPM_P1;HPM_P2
2022/02/15 00:00:34;;;;;;;108.65;48.38;;;;;;;0.62;100.00;97840.28;5056786;28;20021;-90
2022/02/15 00:03:00;;;;;;;121.75;54.22;;;;;;;0.70;100.00;97848.94;5057214;28;20027;-90
2022/02/15 00:05:25;;;;;;;152.63;64.13;;;;;;;0.70;100.00;97847.19;5040509;28;20499;-89
2022/02/15 00:07:51;;;;;;;133.07;58.97;;;;;;;0.72;100.00;97849.75;5039152;28;20021;-90
2022/02/15 00:10:16;;;;;;;146.50;67.20;;;;;;;0.75;100.00;97852.34;5046655;28;20085;-90
2022/02/15 00:12:42;;;;;;;152.02;65.97;;;;;;;0.75;100.00;97863.75;5037419;28;20059;-89
2022/02/15 00:15:09;;;;;;;146.68;65.65;;;;;;;0.68;100.00;97856.84;5020624;28;20033;-88
2022/02/15 00:17:36;;;;;;;134.50;61.35;;;;;;;0.72;100.00;97860.28;5040546;28;20568;-88
2022/02/15 00:20:03;;;;;;;139.73;62.45;;;;;;;0.71;100.00;97856.78;5045521;28;20029;-89
2022/02/15 00:22:28;;;;;;;134.68;59.53;;;;;;;0.72;100.00;97863.78;5041622;28;20033;-88
2022/02/15 00:24:54;;;;;;;129.07;55.88;;;;;;;0.66;100.00;97849.88;5041665;28;20488;-89
2022/02/15 00:27:19;;;;;;;126.85;54.47;;;;;;;0.62;100.00;97850.81;5057718;28;20021;-86
2022/02/15 00:29:45;;;;;;;132.80;57.80;;;;;;;0.60;100.00;97850.00;5041616;28;20025;-89
2022/02/15 00:32:10;;;;;;;128.57;55.63;;;;;;;0.34;100.00;97798.69;5044436;28;20032;-89
2022/02/15 00:34:36;;;;;;;105.07;46.42;;;;;;;0.42;100.00;97849.44;5044026;28;20518;-88
2022/02/15 00:37:02;;;;;;;100.28;45.78;;;;;;;0.08;100.00;97814.06;5044105;28;20419;-88
2022/02/15 00:39:28;;;;;;;109.30;47.38;;;;;;;0.33;100.00;97860.13;5062582;28;20094;-88
2022/02/15 00:41:54;;;;;;;106.55;45.72;;;;;;;0.32;100.00;97850.47;5054652;28;20020;-88
2022/02/15 00:44:19;;;;;;;102.15;44.63;;;;;;;0.34;100.00;97853.94;5060228;28;20054;-89
2022/02/15 00:46:46;;;;;;;84.07;39.00;;;;;;;0.28;100.00;97851.41;5059475;28;20032;-87
2022/02/15 00:49:11;;;;;;;82.40;36.10;;;;;;;0.19;100.00;97854.19;5059785;28;20028;-88
2022/02/15 00:51:37;;;;;;;77.95;35.53;;;;;;;0.28;100.00;97843.50;5059094;28;20024;-86
2022/02/15 00:54:03;;;;;;;74.32;35.10;;;;;;;0.38;100.00;97860.88;5058319;28;20031;-87
2022/02/15 00:56:29;;;;;;;86.40;35.40;;;;;;;0.35;100.00;97853.06;5058917;28;20028;-88
2022/02/15 00:58:56;;;;;;;73.50;35.38;;;;;;;0.38;100.00;97844.22;5058406;28;20035;-87
2022/02/15 01:01:22;;;;;;;82.55;37.72;;;;;;;0.42;100.00;97836.28;5058354;28;20036;-87
2022/02/15 01:03:47;;;;;;;86.63;36.30;;;;;;;0.40;100.00;97819.63;5058884;28;20050;-86
2022/02/15 01:06:13;;;;;;;84.65;37.80;;;;;;;0.41;100.00;97809.97;5059084;28;20029;-88
2022/02/15 01:08:39;;;;;;;88.15;41.50;;;;;;;0.55;100.00;97831.66;5057129;28;20021;-88
2022/02/15 01:11:05;;;;;;;100.32;46.17;;;;;;;0.64;100.00;97833.25;5051002;28;20364;-88
2022/02/15 01:13:31;;;;;;;102.75;44.70;;;;;;;0.55;100.00;97819.34;5044051;28;20028;-89
2022/02/15 01:15:57;;;;;;;84.68;38.38;;;;;;;0.63;100.00;97815.72;5040271;28;20538;-89
2022/02/15 01:18:26;;;;;;;104.72;46.15;;;;;;;0.52;100.00;97819.41;5029101;28;20495;-89
2022/02/15 01:20:53;;;;;;;92.18;41.10;;;;;;;0.58;100.00;97817.59;5036005;28;20049;-88
2022/02/15 01:23:18;;;;;;;97.40;44.95;;;;;;;0.57;100.00;97811.44;5022732;28;20029;-88
2022/02/15 01:25:44;;;;;;;102.38;43.95;;;;;;;0.51;100.00;97798.41;5029741;28;20056;-88
2022/02/15 01:28:10;;;;;;;109.97;47.17;;;;;;;0.42;100.00;97778.41;5022377;28;20030;-88
2022/02/15 01:30:35;;;;;;;103.50;45.55;;;;;;;0.57;100.00;97805.31;5032059;28;20080;-89
2022/02/15 01:33:01;;;;;;;104.68;48.67;;;;;;;0.50;100.00;97794.91;5032661;28;20056;-89
2022/02/15 01:35:27;;;;;;;97.55;45.05;;;;;;;0.46;100.00;97797.63;5044255;28;20039;-88
2022/02/15 01:37:52;;;;;;;101.82;45.17;;;;;;;0.40;100.00;97809.09;5049070;28;20029;-90
2022/02/15 01:40:18;;;;;;;92.93;41.42;;;;;;;0.45;100.00;97815.19;5024268;28;20037;-89
2022/02/15 01:42:43;;;;;;;113.70;49.05;;;;;;;0.28;100.00;97779.53;5030782;28;20442;-89
2022/02/15 01:45:11;;;;;;;101.50;44.50;;;;;;;0.37;100.00;97790.75;5023167;28;20124;-89
2022/02/15 01:47:36;;;;;;;122.93;50.03;;;;;;;0.23;100.00;97777.00;5030702;28;20452;-89
2022/02/15 01:50:02;;;;;;;117.32;49.25;;;;;;;0.36;100.00;97785.53;5035642;28;20032;-89
2022/02/15 01:52:28;;;;;;;113.53;49.38;;;;;;;0.32;100.00;97779.44;5030749;28;20036;-89
2022/02/15 01:54:57;;;;;;;122.75;53.08;;;;;;;0.27;100.00;97776.03;5033664;28;20057;-89
2022/02/15 01:57:23;;;;;;;126.30;55.55;;;;;;;0.28;100.00;97766.38;5034270;28;20060;-89
2022/02/15 01:59:53;;;;;;;120.78;53.00;;;;;;;0.27;100.00;97749.75;5020332;28;20489;-90
2022/02/15 02:02:18;;;;;;;111.82;47.45;;;;;;;0.44;100.00;97776.59;5028208;28;20029;-88
2022/02/15 02:07:28;;;;;;;108.65;48.97;;;;;;;0.44;100.00;97773.09;5045861;28;20400;-89
2022/02/15 02:09:54;;;;;;;118.15;49.00;;;;;;;0.48;100.00;97773.03;5044037;28;20025;-88
2022/02/15 02:12:21;;;;;;;103.45;46.55;;;;;;;0.42;100.00;97764.38;5020895;28;20409;-88
2022/02/15 02:15:05;;;;;;;114.93;46.47;;;;;;;0.40;100.00;97767.03;5038984;28;20048;-90
2022/02/15 02:20:52;;;;;;;113.68;51.28;;;;;;;0.47;100.00;97771.28;5023676;28;20041;-87
2022/02/15 02:23:20;;;;;;;112.93;50.40;;;;;;;0.44;100.00;97781.84;5026372;28;20420;-90
2022/02/15 02:25:46;;;;;;;119.72;50.13;;;;;;;0.41;100.00;97770.53;5046664;28;20120;-88
2022/02/15 02:28:12;;;;;;;115.72;46.60;;;;;;;0.39;100.00;97780.22;5033328;28;20037;-88
2022/02/15 02:30:37;;;;;;;114.50;48.72;;;;;;;0.42;100.00;97786.28;5032131;28;20025;-89
2022/02/15 02:33:04;;;;;;;104.90;47.38;;;;;;;0.33;100.00;97785.59;5026381;28;20021;-89
2022/02/15 02:35:30;;;;;;;101.63;46.80;;;;;;;0.28;100.00;97775.13;5035710;28;20472;-88
2022/02/15 02:37:55;;;;;;;94.47;43.65;;;;;;;0.15;100.00;97768.38;5026716;28;20037;-89
2022/02/15 02:40:21;;;;;;;95.82;43.03;;;;;;;0.00;100.00;97755.50;5026000;28;20037;-89
2022/02/15 02:42:46;;;;;;;94.32;42.28;;;;;;;-0.01;100.00;97780.03;5018991;28;20041;-90
2022/02/15 02:45:14;;;;;;;100.80;45.05;;;;;;;0.07;100.00;97778.13;5015392;28;20030;-89
2022/02/15 02:47:47;;;;;;;90.70;42.67;;;;;;;-0.01;100.00;97775.66;5023629;28;20081;-89
2022/02/15 02:50:14;;;;;;;86.55;39.22;;;;;;;0.08;100.00;97769.38;5026193;28;20037;-88
2022/02/15 02:52:46;;;;;;;88.60;38.28;;;;;;;0.04;100.00;97767.69;5052844;28;20464;-90
2022/02/15 02:55:12;;;;;;;90.63;39.47;;;;;;;-0.03;100.00;97766.03;5021219;28;20037;-87
2022/02/15 02:57:38;;;;;;;84.28;37.88;;;;;;;-0.06;100.00;97766.97;5028384;28;20033;-88
2022/02/15 03:00:15;;;;;;;92.75;43.08;;;;;;;-0.01;100.00;97770.41;5045525;28;20017;-89
2022/02/15 03:02:41;;;;;;;104.95;45.28;;;;;;;-0.26;100.00;97728.78;5031281;28;20067;-88
2022/02/15 03:05:06;;;;;;;91.32;43.10;;;;;;;-0.06;100.00;97761.69;5027338;28;20033;-88
2022/02/15 03:07:33;;;;;;;100.32;45.78;;;;;;;0.04;100.00;97770.31;5026012;28;20029;-90
2022/02/15 03:09:59;;;;;;;109.25;48.15;;;;;;;0.08;100.00;97785.16;5022738;28;20040;-90
2022/02/15 03:12:25;;;;;;;100.68;43.88;;;;;;;0.04;100.00;97765.03;5028544;28;20040;-88
2022/02/15 03:14:50;;;;;;;92.03;41.33;;;;;;;0.06;100.00;97773.78;5021639;28;20140;-88
2022/02/15 03:17:16;;;;;;;91.45;40.08;;;;;;;0.17;100.00;97774.47;5030264;28;20056;-88
2022/02/15 03:19:41;;;;;;;92.75;43.45;;;;;;;0.25;100.00;97790.97;5025144;28;20427;-88
2022/02/15 03:22:07;;;;;;;90.95;42.25;;;;;;;0.30;100.00;97794.41;5025386;28;20059;-88
2022/02/15 03:24:36;;;;;;;98.68;41.70;;;;;;;0.36;100.00;97794.28;5030289;28;20037;-90
2022/02/15 03:27:02;;;;;;;92.20;39.42;;;;;;;0.39;100.00;97781.09;5033123;28;20013;-89
2022/02/15 03:29:27;;;;;;;88.57;37.42;;;;;;;0.45;100.00;97793.25;5023580;28;20032;-90
2022/02/15 03:31:55;;;;;;;74.05;35.38;;;;;;;0.40;100.00;97790.69;5031308;28;20512;-89
2022/02/15 03:34:21;;;;;;;72.78;34.15;;;;;;;0.49;100.00;97792.31;5034402;28;20024;-87
2022/02/15 03:36:46;;;;;;;71.28;34.33;;;;;;;0.50;100.00;97808.06;5038199;28;20029;-88
2022/02/15 03:39:12;;;;;;;78.00;34.92;;;;;;;0.41;100.00;97796.81;5025275;28;20033;-88
2022/02/15 03:44:23;;;;;;;82.18;36.22;;;;;;;0.40;100.00;97814.38;5033969;28;20040;-89
2022/02/15 03:46:49;;;;;;;87.28;35.60;;;;;;;0.33;100.00;97804.00;5021754;28;20029;-89
2022/02/15 03:49:15;;;;;;;84.60;36.72;;;;;;;0.35;100.00;97805.69;5031291;28;20024;-87
2022/02/15 03:51:41;;;;;;;83.93;35.67;;;;;;;0.23;100.00;97800.66;5049042;28;20411;-90
2022/02/15 03:54:07;;;;;;;85.85;36.85;;;;;;;0.27;100.00;97804.97;5022269;28;21433;-90
2022/02/15 03:56:35;;;;;;;70.50;33.35;;;;;;;0.24;100.00;97822.56;5048033;28;20029;-88
2022/02/15 03:59:03;;;;;;;68.47;32.03;;;;;;;0.14;100.00;97794.69;5027886;28;20045;-89
2022/02/15 04:01:28;;;;;;;80.13;33.40;;;;;;;0.11;100.00;97779.84;5028895;28;20025;-89
2022/02/15 04:03:54;;;;;;;69.50;32.70;;;;;;;0.34;100.00;97803.94;5027894;28;20026;-89
2022/02/15 04:06:20;;;;;;;69.68;30.33;;;;;;;0.33;100.00;97796.97;5027894;28;20086;-89
2022/02/15 04:08:45;;;;;;;72.13;33.95;;;;;;;0.41;100.00;97805.59;5024151;28;20017;-89
2022/02/15 04:11:12;;;;;;;69.38;31.67;;;;;;;0.45;100.00;97812.53;5026151;28;20052;-88
2022/02/15 04:13:38;;;;;;;63.60;29.95;;;;;;;0.53;100.00;97817.66;5016558;28;20071;-88
2022/02/15 04:16:05;;;;;;;65.90;30.45;;;;;;;0.45;100.00;97798.50;5025959;28;20126;-88
2022/02/15 04:18:54;;;;;;;62.90;30.27;;;;;;;0.57;100.00;97821.09;5042073;28;20100;-87
2022/02/15 04:21:20;;;;;;;60.75;28.08;;;;;;;0.47;100.00;97799.34;5017515;28;20033;-90
2022/02/15 04:23:47;;;;;;;56.67;26.83;;;;;;;0.52;100.00;97811.50;5046083;28;20083;-88
2022/02/15 04:26:13;;;;;;;59.83;27.05;;;;;;;0.66;100.00;97810.41;5036588;28;20035;-89
2022/02/15 04:28:38;;;;;;;65.70;30.95;;;;;;;0.72;100.00;97811.16;5031307;28;20427;-89
2022/02/15 04:31:04;;;;;;;65.55;29.50;;;;;;;0.77;100.00;97808.44;5029923;28;20036;-88
2022/02/15 04:33:29;;;;;;;52.33;25.45;;;;;;;0.86;100.00;97808.28;5022017;28;20084;-88
2022/02/15 04:35:55;;;;;;;55.17;26.33;;;;;;;0.90;100.00;97804.66;5023417;28;20025;-89
2022/02/15 04:38:21;;;;;;;53.10;24.45;;;;;;;1.04;100.00;97819.31;5062172;28;20033;-89
2022/02/15 04:40:46;;;;;;;58.95;25.58;;;;;;;0.93;100.00;97807.22;5027078;28;20124;-86
2022/02/15 04:43:12;;;;;;;62.20;28.50;;;;;;;0.92;100.00;97795.00;5054099;28;20039;-90
2022/02/15 04:45:38;;;;;;;70.80;31.48;;;;;;;0.87;100.00;97799.47;5030292;28;20097;-89
2022/02/15 04:48:04;;;;;;;65.88;27.42;;;;;;;0.76;100.00;97780.38;5032358;28;20086;-89
2022/02/15 04:50:36;;;;;;;48.13;23.55;;;;;;;0.84;100.00;97774.06;5043117;28;20271;-89
2022/02/15 04:53:18;;;;;;;52.35;21.92;;;;;;;1.01;100.00;97792.16;5072190;28;20031;-89
2022/02/15 04:55:43;;;;;;;48.47;23.25;;;;;;;1.07;100.00;97784.13;5058721;28;20058;-90
2022/02/15 04:58:09;;;;;;;44.45;20.65;;;;;;;1.22;100.00;97802.25;5051796;28;20476;-90
2022/02/15 05:00:35;;;;;;;78.47;35.05;;;;;;;1.27;100.00;97795.09;5036984;28;20032;-91
2022/02/15 05:03:00;;;;;;;75.22;34.28;;;;;;;1.23;100.00;97803.97;5023103;28;20411;-91
2022/02/15 05:05:26;;;;;;;74.32;33.20;;;;;;;1.36;100.00;97807.22;5058537;28;20028;-89
2022/02/15 05:07:52;;;;;;;75.90;33.25;;;;;;;1.47;100.00;97821.03;5026630;28;20073;-89
2022/02/15 05:10:17;;;;;;;72.18;33.20;;;;;;;1.56;100.00;97819.06;5018051;28;20539;-87
2022/02/15 05:12:43;;;;;;;83.10;41.47;;;;;;;1.36;100.00;97781.72;5028498;28;20029;-90
2022/02/15 05:15:12;;;;;;;83.22;37.33;;;;;;;1.33;100.00;97778.28;5043134;28;20017;-89
2022/02/15 05:17:44;;;;;;;99.68;43.88;;;;;;;1.39;100.00;97783.44;5024865;28;20033;-89
2022/02/15 05:20:11;;;;;;;106.83;44.60;;;;;;;1.50;100.00;97791.97;5040412;28;20021;-88
2022/02/15 05:22:37;;;;;;;92.07;39.85;;;;;;;1.58;100.00;97798.81;5055381;28;20064;-88
2022/02/15 05:25:03;;;;;;;92.35;40.92;;;;;;;1.66;100.00;97795.13;5037632;28;20033;-91
2022/02/15 05:27:30;;;;;;;85.60;38.90;;;;;;;1.73;100.00;97809.91;5011978;28;20026;-76
2022/02/15 05:29:55;;;;;;;86.72;36.08;;;;;;;1.74;100.00;97798.47;5038753;28;20056;-88
2022/02/15 05:32:24;;;;;;;109.32;47.97;;;;;;;2.07;100.00;97831.94;5011797;28;20087;-89
2022/02/15 05:34:53;;;;;;;118.93;53.97;;;;;;;1.83;100.00;97790.34;5018946;28;20033;-88
2022/02/15 05:37:18;;;;;;;118.82;53.40;;;;;;;2.23;100.00;97835.09;5034930;28;20033;-87
2022/02/15 05:39:44;;;;;;;122.75;56.63;;;;;;;2.10;100.00;97816.03;5026018;28;20033;-77
2022/02/15 05:42:13;;;;;;;96.47;44.28;;;;;;;2.23;100.00;97832.44;5037421;28;20033;-90
2022/02/15 05:44:38;;;;;;;90.63;43.70;;;;;;;2.22;100.00;97817.50;5029752;28;20037;-88
2022/02/15 05:47:04;;;;;;;85.13;41.08;;;;;;;2.22;100.00;97821.00;5006103;28;20849;-90
2022/02/15 05:49:32;;;;;;;149.45;68.35;;;;;;;2.33;100.00;97834.84;5033592;28;20033;-90
2022/02/15 05:52:15;;;;;;;137.38;64.18;;;;;;;2.30;100.00;97850.75;5037512;28;20477;-90
2022/02/15 05:54:41;;;;;;;123.97;56.03;;;;;;;2.40;100.00;97849.59;5054673;28;20029;-90
2022/02/15 05:57:06;;;;;;;127.75;58.42;;;;;;;2.49;100.00;97845.88;5069923;28;20049;-90
2022/02/15 05:59:34;;;;;;;115.65;52.42;;;;;;;2.63;100.00;97860.44;5021419;28;20033;-91
2022/02/15 06:02:00;;;;;;;102.35;47.70;;;;;;;2.80;100.00;97885.56;5020330;28;20427;-91
2022/02/15 06:04:25;;;;;;;76.65;37.05;;;;;;;2.86;100.00;97856.34;5033641;28;20113;-92
2022/02/15 06:06:51;;;;;;;85.68;41.40;;;;;;;3.06;99.39;97873.38;5065565;28;20052;-90
2022/02/15 06:09:16;;;;;;;91.65;42.67;;;;;;;3.05;98.67;97860.22;5021334;28;20029;-89
2022/02/15 06:11:42;;;;;;;88.15;41.17;;;;;;;3.18;97.23;97851.03;5020759;28;20032;-90
2022/02/15 06:14:08;;;;;;;114.75;51.03;;;;;;;3.36;97.01;97855.81;5028554;28;20033;-91
2022/02/15 06:16:35;;;;;;;139.73;60.08;;;;;;;3.53;95.72;97845.63;5038614;28;20069;-92
2022/02/15 06:19:03;;;;;;;100.63;46.92;;;;;;;3.85;94.38;97863.16;5006840;28;20038;-91
2022/02/15 06:21:29;;;;;;;97.38;44.22;;;;;;;4.05;92.62;97844.91;5005343;28;20032;-91
2022/02/15 06:23:54;;;;;;;82.32;39.42;;;;;;;4.33;90.08;97866.06;5009791;28;20108;-91
2022/02/15 06:26:20;;;;;;;71.57;34.38;;;;;;;4.77;87.83;97877.84;5007785;28;20063;-91
2022/02/15 06:28:46;;;;;;;74.03;36.45;;;;;;;4.71;86.29;97847.13;5006005;28;20018;-91
2022/02/15 06:31:11;;;;;;;71.80;32.88;;;;;;;5.44;82.11;97839.22;5004309;28;20033;-90
2022/02/15 06:33:37;;;;;;;57.53;28.48;;;;;;;6.10;77.79;97858.81;5008963;28;20041;-91
2022/02/15 06:36:04;;;;;;;61.53;27.80;;;;;;;6.70;74.21;97851.06;5004822;28;20444;-90
2022/02/15 06:38:29;;;;;;;58.40;28.55;;;;;;;6.98;72.99;97838.31;5004617;28;20037;-90
2022/02/15 06:40:55;;;;;;;46.42;23.77;;;;;;;7.12;71.63;97850.16;5004435;28;20055;-90
2022/02/15 06:43:21;;;;;;;40.25;21.17;;;;;;;6.61;72.99;97846.13;5004405;28;20029;-90
2022/02/15 06:45:46;;;;;;;36.45;19.92;;;;;;;8.89;67.47;97826.63;5005422;28;20018;-90
2022/02/15 06:48:12;;;;;;;37.10;20.50;;;;;;;11.13;56.72;97818.63;5004085;28;20026;-91
2022/02/15 06:50:38;;;;;;;54.30;26.48;;;;;;;13.20;50.75;97807.91;5020402;28;20017;-91
2022/02/15 06:53:04;;;;;;;43.60;22.55;;;;;;;14.81;46.31;97788.22;5004070;28;20036;-91
2022/02/15 06:55:30;;;;;;;41.85;21.50;;;;;;;14.05;45.21;97778.56;5003325;28;20057;-91
2022/02/15 06:57:55;;;;;;;59.05;28.88;;;;;;;12.36;49.40;97811.78;5003213;28;20021;-91
2022/02/15 07:00:21;;;;;;;65.53;31.15;;;;;;;11.35;51.99;97830.59;5005554;28;20496;-91
2022/02/15 07:02:46;;;;;;;95.45;46.22;;;;;;;10.11;56.07;97851.25;5004151;28;20030;-89
2022/02/15 07:05:12;;;;;;;60.58;32.20;;;;;;;9.16;59.32;97862.59;5004981;28;20036;-91
2022/02/15 07:07:38;;;;;;;68.45;38.88;;;;;;;8.55;62.52;97869.25;5008776;28;20493;-90
2022/02/15 07:10:05;;;;;;;93.90;49.72;;;;;;;8.48;63.96;97866.03;5003186;28;20060;-90
2022/02/15 07:12:31;;;;;;;85.22;42.13;;;;;;;8.48;64.06;97873.16;5003013;28;20036;-91
2022/02/15 07:14:57;;;;;;;61.92;32.75;;;;;;;8.71;62.53;97864.88;5003128;28;20041;-90
2022/02/15 07:17:24;;;;;;;62.88;33.60;;;;;;;8.65;63.32;97857.19;5018658;28;20420;-90
2022/02/15 07:19:50;;;;;;;56.30;28.77;;;;;;;8.63;63.90;97859.94;4999474;28;20037;-91
2022/02/15 07:22:16;;;;;;;86.03;44.70;;;;;;;8.52;64.47;97859.59;5001151;28;20184;-91
2022/02/15 07:24:41;;;;;;;67.38;36.17;;;;;;;8.38;63.91;97864.72;5019389;28;20064;-90
2022/02/15 07:27:07;;;;;;;88.15;45.78;;;;;;;8.34;64.20;97863.13;4999660;28;20033;-91
2022/02/15 07:29:33;;;;;;;78.55;41.78;;;;;;;8.49;63.88;97851.75;5019155;28;20030;-89
2022/02/15 07:31:58;;;;;;;87.80;44.53;;;;;;;10.24;60.63;97841.59;5014516;28;20034;-89
2022/02/15 07:34:24;;;;;;;83.00;46.70;;;;;;;12.52;52.83;97818.72;5000712;28;20037;-90
2022/02/15 07:36:53;;;;;;;94.13;44.22;;;;;;;14.21;48.15;97815.97;5002044;28;20029;-90
2022/02/15 07:39:18;;;;;;;61.38;32.40;;;;;;;14.89;45.34;97816.28;4997610;28;20033;-90
2022/02/15 07:41:44;;;;;;;67.38;33.08;;;;;;;16.60;41.38;97791.97;5001418;28;20095;-92
2022/02/15 07:44:10;;;;;;;36.63;17.27;;;;;;;16.74;40.30;97786.28;4999112;28;20036;-89
2022/02/15 07:46:35;;;;;;;36.00;19.23;;;;;;;14.95;42.71;97790.75;5000149;28;20025;-91
2022/02/15 07:49:01;;;;;;;28.58;15.15;;;;;;;14.76;42.55;97787.72;5002342;28;20417;-90
2022/02/15 07:51:27;;;;;;;33.30;16.48;;;;;;;15.53;42.36;97788.03;5016671;28;20060;-90
2022/02/15 07:53:52;;;;;;;28.70;15.85;;;;;;;16.92;39.62;97793.84;4999206;28;20601;-91
2022/02/15 07:56:18;;;;;;;30.17;17.55;;;;;;;18.16;38.07;97783.03;4999952;28;20079;-90
2022/02/15 07:58:43;;;;;;;36.10;18.65;;;;;;;18.19;37.39;97775.50;5019044;28;20517;-90
2022/02/15 08:01:09;;;;;;;25.88;15.60;;;;;;;18.59;36.70;97778.22;4996623;28;20056;-89
2022/02/15 08:03:35;;;;;;;27.02;16.40;;;;;;;17.70;37.30;97762.72;5015068;28;20036;-86
2022/02/15 08:06:00;;;;;;;38.80;18.27;;;;;;;17.55;37.70;97785.72;4997444;28;20033;-85
2022/02/15 08:08:26;;;;;;;45.75;25.70;;;;;;;17.75;38.46;97789.38;4996505;28;20029;-85
2022/02/15 08:10:55;;;;;;;32.60;18.23;;;;;;;18.20;36.86;97770.94;4997952;28;20032;-86
2022/02/15 08:13:21;;;;;;;32.53;18.38;;;;;;;19.15;35.10;97769.47;5011221;28;20033;-83
2022/02/15 08:15:49;;;;;;;26.05;16.10;;;;;;;19.87;33.61;97758.97;4998348;28;20429;-90
2022/02/15 08:18:15;;;;;;;31.38;16.75;;;;;;;20.47;33.00;97765.75;4996801;28;20068;-90
2022/02/15 08:20:41;;;;;;;35.95;20.40;;;;;;;21.55;31.89;97761.13;5000152;28;20022;-86
2022/02/15 08:23:07;;;;;;;43.40;27.10;;;;;;;21.56;31.55;97771.00;4996070;28;20505;-86
2022/02/15 08:25:34;;;;;;;34.05;20.80;;;;;;;21.59;31.33;97748.91;4999093;28;20494;-88
2022/02/15 08:27:59;;;;;;;49.30;27.92;;;;;;;21.68;30.96;97758.84;5012205;28;20026;-88
2022/02/15 08:30:25;;;;;;;31.58;19.05;;;;;;;23.07;28.41;97748.47;5012970;28;20033;-87
2022/02/15 08:32:51;;;;;;;35.97;20.77;;;;;;;20.93;30.83;97751.16;5012659;28;20482;-88
2022/02/15 08:35:17;;;;;;;29.13;17.25;;;;;;;21.84;30.49;97758.09;4995639;28;20097;-87
2022/02/15 08:37:43;;;;;;;27.00;15.13;;;;;;;22.82;28.09;97736.66;4999323;28;20053;-88
2022/02/15 08:40:12;;;;;;;18.05;11.57;;;;;;;22.53;27.61;97728.84;4999747;28;20080;-87
2022/02/15 08:42:39;;;;;;;15.82;8.57;;;;;;;23.22;26.78;97735.88;5003029;28;20478;-88
2022/02/15 08:45:07;;;;;;;11.50;7.68;;;;;;;23.98;25.95;97719.09;4999541;28;20113;-88
2022/02/15 08:47:33;;;;;;;14.50;8.68;;;;;;;22.86;26.72;97729.81;5018235;28;20033;-87
2022/02/15 08:49:58;;;;;;;16.70;10.30;;;;;;;22.56;27.21;97733.13;5019810;28;20105;-88
2022/02/15 08:52:24;;;;;;;23.42;11.00;;;;;;;22.44;28.44;97729.84;5000699;28;20025;-88
2022/02/15 08:54:51;;;;;;;14.10;9.23;;;;;;;22.02;27.68;97718.06;4999688;28;20121;-88
2022/02/15 08:57:17;;;;;;;13.23;8.90;;;;;;;20.38;28.47;97728.59;5016111;28;20033;-88
2022/02/15 08:59:43;;;;;;;16.33;9.20;;;;;;;19.75;29.95;97736.53;5018303;28;20041;-89
2022/02/15 09:02:09;;;;;;;12.98;8.73;;;;;;;20.43;29.31;97708.13;4999690;28;20030;-88
2022/02/15 09:04:35;;;;;;;13.50;7.50;;;;;;;20.74;28.89;97719.50;5017143;28;20116;-88
2022/02/15 09:07:01;;;;;;;11.38;7.43;;;;;;;20.70;29.00;97718.13;5002697;28;20021;-88
2022/02/15 09:09:27;;;;;;;14.50;6.53;;;;;;;20.20;29.79;97714.09;4999416;28;20021;-88
2022/02/15 09:11:53;;;;;;;9.35;5.68;;;;;;;20.06;29.52;97717.31;4998834;28;20060;-88
2022/02/15 09:14:19;;;;;;;11.52;6.40;;;;;;;20.06;29.39;97720.03;5015643;28;20445;-88
2022/02/15 09:16:45;;;;;;;12.13;7.03;;;;;;;20.42;29.06;97720.03;5001013;28;20580;-88
2022/02/15 09:19:13;;;;;;;8.43;5.72;;;;;;;20.64;28.77;97718.72;5018535;28;20076;-88
2022/02/15 09:21:39;;;;;;;12.57;6.70;;;;;;;20.64;29.15;97735.03;5000798;28;20042;-88
2022/02/15 09:24:06;;;;;;;10.52;5.00;;;;;;;20.01;28.96;97736.75;4985837;28;20052;-89
2022/02/15 09:26:32;;;;;;;11.07;6.90;;;;;;;19.97;29.47;97729.91;5000366;28;20026;-90
2022/02/15 09:28:58;;;;;;;9.93;6.32;;;;;;;20.32;28.99;97731.94;5015674;28;20038;-90
2022/02/15 09:31:24;;;;;;;9.07;6.32;;;;;;;21.23;28.10;97725.44;5015792;28;20017;-89
2022/02/15 09:33:52;;;;;;;10.82;5.90;;;;;;;21.58;27.42;97728.13;5001562;28;21062;-89
2022/02/15 09:36:22;;;;;;;9.15;5.85;;;;;;;21.31;28.21;97718.22;5016187;28;20105;-89
2022/02/15 09:38:48;;;;;;;8.52;6.50;;;;;;;21.96;26.98;97703.22;5015614;28;20029;-90
2022/02/15 09:41:14;;;;;;;12.82;6.53;;;;;;;21.78;27.55;97734.22;5014721;28;20083;-89
2022/02/15 09:43:40;;;;;;;11.82;7.47;;;;;;;22.60;27.25;97712.69;5001010;28;20037;-90
2022/02/15 09:46:13;;;;;;;10.32;6.85;;;;;;;23.30;25.30;97710.44;4999114;28;20034;-90
2022/02/15 09:48:39;;;;;;;14.77;7.38;;;;;;;22.46;26.15;97691.50;5017744;28;20020;-87
2022/02/15 09:51:05;;;;;;;14.05;8.57;;;;;;;21.04;28.07;97707.41;5018304;28;20029;-88
2022/02/15 09:53:31;;;;;;;11.88;7.00;;;;;;;19.88;29.24;97719.94;4993095;28;20026;-89
2022/02/15 09:55:57;;;;;;;11.60;7.50;;;;;;;18.98;30.48;97716.78;5014960;28;20410;-89
2022/02/15 09:58:23;;;;;;;11.93;7.55;;;;;;;18.96;30.73;97713.38;5015617;28;20028;-88
2022/02/15 10:00:49;;;;;;;15.95;8.35;;;;;;;19.26;30.47;97713.19;5017092;28;20040;-88
2022/02/15 10:03:15;;;;;;;15.55;6.95;;;;;;;19.73;29.49;97708.69;4998905;28;20478;-89
2022/02/15 10:05:47;;;;;;;21.80;10.10;;;;;;;20.15;29.29;97706.38;5001145;28;20030;-90
2022/02/15 10:08:12;;;;;;;14.30;8.75;;;;;;;21.01;28.37;97700.38;5002736;28;20144;-89
2022/02/15 10:10:39;;;;;;;15.45;8.40;;;;;;;21.57;27.92;97701.91;5002868;28;20025;-87
2022/02/15 10:13:09;;;;;;;10.50;6.53;;;;;;;20.71;28.05;97706.22;4998279;28;20022;-90
2022/02/15 10:15:41;;;;;;;11.80;7.80;;;;;;;19.98;29.10;97702.63;5016289;28;20049;-90
2022/02/15 10:18:19;;;;;;;18.08;9.30;;;;;;;19.73;29.89;97692.41;4999077;28;20022;-90
2022/02/15 10:20:46;;;;;;;22.15;12.23;;;;;;;20.14;28.71;97693.81;5002054;28;20033;-89
2022/02/15 10:23:19;;;;;;;15.02;8.18;;;;;;;20.54;28.24;97690.75;4999251;28;20068;-89
2022/02/15 10:25:46;;;;;;;11.38;6.90;;;;;;;21.32;27.34;97686.44;5034330;28;20056;-89
2022/02/15 10:28:21;;;;;;;10.93;5.43;;;;;;;20.89;27.05;97679.88;4998562;28;20124;-90
2022/02/15 10:30:49;;;;;;;13.65;5.70;;;;;;;21.42;26.91;97679.84;5001954;28;20033;-89
2022/02/15 10:33:18;;;;;;;10.43;6.78;;;;;;;21.39;26.45;97676.59;5015611;28;20026;-90
2022/02/15 10:35:53;;;;;;;11.68;6.47;;;;;;;21.98;26.40;97663.03;5001693;28;20044;-89
2022/02/15 10:38:31;;;;;;;13.38;7.32;;;;;;;23.21;25.15;97664.03;5009365;28;20495;-88
2022/02/15 10:40:58;;;;;;;13.57;7.90;;;;;;;23.94;24.54;97655.72;4993067;28;20034;-88
2022/02/15 10:43:25;;;;;;;20.38;9.27;;;;;;;25.03;23.83;97659.31;5013813;28;20026;-88
2022/02/15 10:45:51;;;;;;;9.77;7.03;;;;;;;24.77;23.48;97653.31;4997964;28;20486;-87
2022/02/15 10:48:16;;;;;;;9.85;6.53;;;;;;;24.94;23.11;97649.47;5001755;28;20110;-87
2022/02/15 10:50:42;;;;;;;13.20;8.05;;;;;;;24.71;23.56;97638.47;5017091;28;20025;-88
2022/02/15 10:53:07;;;;;;;64.15;24.70;;;;;;;25.14;23.47;97639.72;5001315;28;20037;-89
2022/02/15 10:55:33;;;;;;;17.88;10.25;;;;;;;25.41;23.09;97640.19;5000571;28;20095;-87
2022/02/15 10:57:59;;;;;;;331.05;131.75;;;;;;;24.22;23.73;97616.03;5015698;28;20350;-88
2022/02/15 11:00:24;;;;;;;110.55;45.60;;;;;;;24.16;24.12;97627.66;5033747;28;20033;-88
2022/02/15 11:02:52;;;;;;;16.17;8.20;;;;;;;24.57;23.70;97613.78;4992921;28;20038;-87
2022/02/15 11:05:17;;;;;;;8.95;6.05;;;;;;;24.82;23.03;97626.28;4998224;28;20512;-89
2022/02/15 11:07:43;;;;;;;28.63;6.65;;;;;;;25.24;22.89;97615.69;5000333;28;20034;-90
2022/02/15 11:10:31;;;;;;;8.45;5.60;;;;;;;25.18;22.59;97618.28;5000507;28;20045;-88
2022/02/15 11:12:59;;;;;;;11.13;5.50;;;;;;;25.62;22.34;97607.47;5015850;28;20052;-88
2022/02/15 11:15:33;;;;;;;12.25;8.45;;;;;;;25.63;22.38;97607.25;5003734;28;20085;-89
2022/02/15 11:18:02;;;;;;;11.13;6.32;;;;;;;24.90;22.19;97615.28;4998839;28;20410;-89
2022/02/15 11:20:29;;;;;;;16.58;5.97;;;;;;;24.43;22.73;97603.59;5001395;28;20029;-89
2022/02/15 11:22:57;;;;;;;14.18;5.88;;;;;;;24.38;22.69;97604.16;5015956;28;20037;-89